• Join FlightAware (Why Join?)
  • Login
  • US Flag 
04:27PM EDT


 

Airport Tracker/Info


-or-


 

Live Flight TrackerFlight Track Log ✈ N231PF ✈ 15-Oct-2013 ✈ KPOU - KHPN

Flight Track Log - Related Links

Times and Time Zones

All times are in EDT time to prevent confusion due to time zone crossing. See the N231PF flight status page for this flight to view local times or setup timezone preferences in your user account.

Time Position Orientation Groundspeed Altitude Reporting Facility
EDT Latitude Longitude Course Direction KTS MPH feet Rate Location/Type
04:35PM 41.6000 -73.9333 143° Southeast 100 115 1,400  Level New York TRACON
04:36PM 41.5833 -73.9667 236° Southwest 103 119 2,200 780 Climbing New York TRACON
04:37PM 41.5833 -74.0000 270° West 117 135 3,000 300 Climbing New York TRACON
04:38PM 41.5500 -73.9833 159° South 150 173 2,900 -60 Descending New York TRACON
04:39PM 41.5167 -73.9500 143° Southeast 158 182 2,900  Level New York TRACON
04:40PM 41.3781 -73.8054 143° Southeast  Level Estimated
04:40PM 41.4667 -73.9167 153° Southeast 156 180 2,900  Level New York TRACON
04:41PM 41.4333 -73.8833 143° Southeast 154 177 2,900  Level New York TRACON
04:42PM 41.4000 -73.8500 143° Southeast 154 177 2,900  Level New York TRACON
04:43PM 41.3667 -73.8167 143° Southeast 159 183 2,900  Level New York TRACON
04:44PM 41.3333 -73.8167 180° South 158 182 2,900  Level New York TRACON
04:45PM 41.3000 -73.8500 217° Southwest 142 163 2,900  Level New York TRACON
04:46PM 41.2667 -73.8833 217° Southwest 143 165 2,900  Level New York TRACON
04:47PM 41.2500 -73.8833 180° South 138 159 2,900 -360 Level New York TRACON
04:48PM 41.2333 -73.8333 114° Southeast 155 178 2,200 -420 Descending New York TRACON
04:49PM 41.2000 -73.8000 143° Southeast 144 166 2,100 -60 Descending New York TRACON
04:50PM 41.1667 -73.7833 159° South 151 174 2,100 -360 Level New York TRACON
04:51PM 41.1333 -73.7500 143° Southeast 127 146 1,400 -540 Descending New York TRACON
04:52PM 41.1000 -73.7333 159° South 98 113 1,100 -420 Descending New York TRACON
04:53PM 41.0833 -73.7167 143° Southeast 79 91 600 -540 Descending New York TRACON
04:55PM 41.0669 -73.7076 246° West  Level Estimated